Time;durP1;ratioP1;P1;durP2;ratioP2;P2;SDS_P1;SDS_P2;PMS_P1;PMS_P2;Temp;Humidity;BMP_temperature;BMP_pressure;BME280_temperature;BME280_humidity;BME280_pressure;Samples;Min_cycle;Max_cycle;Signal;HPM_P1;HPM_P2
2022/02/08 00:01:26;;;;;;;27.03;3.77;;;;;;;3.29;95.55;100796.31;3527445;82;98597;-86
2022/02/08 00:11:32;;;;;;;24.50;4.80;;;;;;;3.28;95.61;100800.16;3532829;81;98412;-87
2022/02/08 00:16:34;;;;;;;24.43;5.10;;;;;;;3.27;95.43;100806.72;3535707;82;98967;-86
2022/02/08 00:21:34;;;;;;;20.97;3.70;;;;;;;3.28;95.46;100811.03;3532441;82;99060;-86
2022/02/08 00:26:35;;;;;;;19.13;4.87;;;;;;;3.28;95.45;100812.39;3549053;82;98622;-85
2022/02/08 00:31:36;;;;;;;21.87;5.10;;;;;;;3.28;95.47;100821.13;3536776;82;99022;-86
2022/02/08 00:36:37;;;;;;;19.87;5.17;;;;;;;3.25;95.34;100817.13;3523239;82;35729;-87
2022/02/08 00:41:39;;;;;;;18.63;3.73;;;;;;;3.24;95.58;100821.52;3530085;82;98512;-86
2022/02/08 00:46:47;;;;;;;20.60;4.23;;;;;;;3.24;95.32;100835.94;3554172;82;98648;-88
2022/02/08 00:51:47;;;;;;;17.83;4.17;;;;;;;3.26;94.94;100843.75;3534474;82;98672;-88
2022/02/08 00:56:46;;;;;;;21.67;3.97;;;;;;;3.26;94.90;100857.34;3531037;82;99112;-88
2022/02/08 01:01:47;;;;;;;23.57;4.33;;;;;;;3.24;95.36;100873.20;3537927;82;98600;-88
2022/02/08 01:06:48;;;;;;;22.23;3.47;;;;;;;3.21;94.92;100881.98;3534709;81;98778;-90
2022/02/08 01:11:52;;;;;;;19.70;3.90;;;;;;;3.21;94.99;100893.67;3532577;82;98542;-88
2022/02/08 01:16:52;;;;;;;15.00;4.07;;;;;;;3.19;95.14;100897.27;3530879;81;98625;-89
2022/02/08 01:21:53;;;;;;;14.30;3.53;;;;;;;3.18;95.36;100905.17;3526961;82;98745;-90
2022/02/08 01:27:08;;;;;;;16.50;3.70;;;;;;;3.16;95.56;100898.47;3526242;82;99032;-88
2022/02/08 01:32:10;;;;;;;20.30;3.40;;;;;;;3.12;95.30;100907.02;3529319;82;98735;-88
2022/02/08 01:42:18;;;;;;;27.70;4.43;;;;;;;3.09;95.42;100910.34;3531980;82;98651;-88
2022/02/08 01:47:46;;;;;;;17.42;4.12;;;;;;;3.08;95.56;100919.63;3520951;82;98831;-88
2022/02/08 01:52:24;;;;;;;23.07;5.00;;;;;;;3.07;95.23;100924.83;3524897;81;98656;-89
2022/02/08 01:57:25;;;;;;;15.50;3.13;;;;;;;3.05;95.35;100925.68;3531879;82;98742;-90
2022/02/08 02:02:26;;;;;;;12.77;3.33;;;;;;;3.05;95.45;100931.12;3535696;81;99014;-89
2022/02/08 02:07:27;;;;;;;16.60;4.37;;;;;;;2.97;95.57;100937.34;3527762;82;98695;-88
2022/02/08 02:12:28;;;;;;;17.70;3.30;;;;;;;3.02;95.71;100961.67;3539609;82;98499;-91
2022/02/08 02:17:29;;;;;;;20.13;3.47;;;;;;;3.00;95.50;100960.62;3528276;82;99122;-89
2022/02/08 02:22:30;;;;;;;22.00;3.60;;;;;;;2.99;95.33;100971.26;3544658;82;98645;-88
2022/02/08 02:27:31;;;;;;;25.60;5.47;;;;;;;2.95;95.54;100978.42;3531593;82;98653;-87
2022/02/08 02:32:32;;;;;;;22.60;3.90;;;;;;;2.92;95.58;100972.82;3540349;82;98626;-89
2022/02/08 02:37:32;;;;;;;22.42;4.40;;;;;;;2.86;95.58;100978.96;3534009;82;98918;-89
2022/02/08 02:42:34;;;;;;;18.92;3.62;;;;;;;2.83;95.56;100982.84;3545431;82;98334;-88
2022/02/08 02:47:37;;;;;;;27.53;4.23;;;;;;;2.80;96.01;100990.27;3537807;81;98665;-90
2022/02/08 02:52:38;;;;;;;23.70;4.45;;;;;;;2.74;95.98;100980.08;3539063;82;98731;-89
2022/02/08 02:57:39;;;;;;;16.23;3.50;;;;;;;2.67;96.06;100985.73;3511169;81;99119;-89
2022/02/08 03:02:50;;;;;;;18.20;3.43;;;;;;;2.60;96.37;100998.94;3539524;82;98654;-90
2022/02/08 03:18:35;;;;;;;16.10;3.23;;;;;;;2.32;96.96;101006.97;3541784;82;98917;-90
2022/02/08 03:23:31;;;;;;;21.67;4.70;;;;;;;2.23;97.41;101016.95;3539685;82;99056;-90
2022/02/08 03:28:32;;;;;;;18.55;4.12;;;;;;;2.13;97.86;101019.93;3532425;82;98681;-91
2022/02/08 03:33:33;;;;;;;21.07;4.20;;;;;;;2.06;98.01;101025.77;3548212;82;98593;-89
2022/02/08 03:38:38;;;;;;;16.63;2.80;;;;;;;2.03;98.36;101036.44;3522968;82;98741;-89
2022/02/08 03:43:40;;;;;;;19.13;3.83;;;;;;;1.99;98.61;101042.22;3537233;82;106059;-92
2022/02/08 03:48:43;;;;;;;12.95;3.00;;;;;;;1.97;98.89;101045.81;3512380;82;98903;-91
2022/02/08 03:53:47;;;;;;;21.12;2.80;;;;;;;1.98;99.22;101054.20;3541854;81;98488;-89
2022/02/08 03:58:48;;;;;;;23.70;3.72;;;;;;;1.99;99.41;101050.37;3518645;82;98762;-92
2022/02/08 04:04:19;;;;;;;23.70;3.70;;;;;;;2.02;99.51;101058.70;3523249;82;97916;-90
2022/02/08 04:08:57;;;;;;;21.83;3.03;;;;;;;2.07;99.54;101059.95;3530530;82;98776;-89
2022/02/08 04:14:15;;;;;;;20.27;4.07;;;;;;;2.12;99.69;101061.20;3541902;82;98641;-90
2022/02/08 04:19:18;;;;;;;22.97;4.30;;;;;;;2.16;99.83;101064.92;3528416;82;98383;-89
2022/02/08 04:45:44;;;;;;;34.08;11.08;;;;;;;2.41;100.00;101072.47;3526841;82;99173;-91
2022/02/08 04:49:57;;;;;;;27.17;6.00;;;;;;;2.47;100.00;101061.73;3499952;81;99002;-88
2022/02/08 04:55:18;;;;;;;21.17;4.65;;;;;;;2.52;100.00;101057.53;3536056;82;33131;-90
2022/02/08 05:00:15;;;;;;;31.75;7.12;;;;;;;2.58;100.00;101064.45;3527525;82;98606;-90
2022/02/08 05:42:41;;;;;;;13.90;3.70;;;;;;;2.74;100.00;101026.85;3538388;82;98710;-90
2022/02/08 05:47:28;;;;;;;21.80;6.35;;;;;;;2.72;100.00;101019.55;3531481;82;98657;-91
2022/02/08 05:57:33;;;;;;;20.92;3.40;;;;;;;2.77;100.00;101016.70;3533996;81;98920;-89
2022/02/08 06:02:33;;;;;;;21.37;3.67;;;;;;;2.77;100.00;101018.88;3540707;82;98897;-89
2022/02/08 06:07:34;;;;;;;20.90;4.43;;;;;;;2.80;100.00;101024.25;3496287;82;98858;-89
2022/02/08 06:12:43;;;;;;;23.33;5.23;;;;;;;2.79;100.00;101034.30;3529959;82;33061;-90
2022/02/08 06:17:45;;;;;;;26.77;5.55;;;;;;;2.80;100.00;101040.55;3528097;82;98773;-90
2022/02/08 06:22:45;;;;;;;23.23;4.43;;;;;;;2.80;100.00;101041.34;3540022;82;98848;-89
2022/02/08 06:27:50;;;;;;;19.90;3.40;;;;;;;2.82;100.00;101035.60;3535373;82;99100;-89
2022/02/08 06:32:53;;;;;;;17.35;3.77;;;;;;;2.83;100.00;101023.61;3539253;82;98859;-91
2022/02/08 06:37:56;;;;;;;16.60;3.10;;;;;;;2.82;100.00;101035.05;3537233;81;98942;-89
2022/02/08 06:43:00;;;;;;;17.70;3.70;;;;;;;2.84;100.00;101015.15;3546688;82;29690;-88
2022/02/08 06:48:03;;;;;;;18.97;5.27;;;;;;;2.87;100.00;101016.44;3543526;81;99018;-89
2022/02/08 06:53:05;;;;;;;16.82;5.85;;;;;;;2.86;100.00;101021.64;3558362;81;99035;-90
2022/02/08 06:58:08;;;;;;;25.20;5.17;;;;;;;2.91;100.00;101014.72;3538435;81;98886;-91
2022/02/08 07:03:12;;;;;;;15.23;3.77;;;;;;;2.92;100.00;101001.36;3539847;82;99335;-89
2022/02/08 07:08:13;;;;;;;18.27;4.65;;;;;;;2.95;100.00;100985.80;3534308;82;99259;-87
2022/02/08 07:13:15;;;;;;;15.80;4.23;;;;;;;2.97;100.00;100991.17;3585497;81;33066;-87
2022/02/08 07:18:16;;;;;;;16.33;3.27;;;;;;;3.00;100.00;100983.73;3567901;81;99145;-88
2022/02/08 07:23:17;;;;;;;20.32;4.65;;;;;;;3.03;100.00;100985.02;3582329;81;99065;-88
2022/02/08 07:28:18;;;;;;;15.50;3.17;;;;;;;3.06;100.00;100983.83;3587158;81;99269;-88
2022/02/08 07:33:18;;;;;;;12.00;3.97;;;;;;;3.10;100.00;100979.38;3586400;81;99307;-88
2022/02/08 07:38:28;;;;;;;20.60;5.40;;;;;;;3.11;100.00;100985.63;3505868;80;98977;-90
2022/02/08 07:43:25;;;;;;;13.50;4.03;;;;;;;3.13;100.00;100979.31;3538369;82;26224;-87
2022/02/08 07:48:29;;;;;;;19.23;4.30;;;;;;;3.18;100.00;100982.67;3527836;82;99056;-87
2022/02/08 07:53:30;;;;;;;16.97;5.10;;;;;;;3.21;100.00;100981.25;3512081;82;98747;-90
2022/02/08 07:58:31;;;;;;;18.37;6.10;;;;;;;3.24;100.00;100983.35;3530760;82;98932;-87
2022/02/08 08:03:32;;;;;;;15.07;5.67;;;;;;;3.29;100.00;100981.85;3542230;80;99166;-88
2022/02/08 08:08:34;;;;;;;18.70;5.60;;;;;;;3.33;100.00;100982.26;3533403;82;98956;-88
2022/02/08 08:13:46;;;;;;;18.07;5.87;;;;;;;3.37;100.00;100979.16;3512408;82;32466;-89
2022/02/08 08:18:56;;;;;;;18.30;5.85;;;;;;;3.42;100.00;100975.48;3519654;82;98866;-89
2022/02/08 08:23:45;;;;;;;18.63;6.30;;;;;;;3.46;100.00;100964.22;3535623;82;99175;-88
2022/02/08 08:28:46;;;;;;;21.65;5.85;;;;;;;3.51;100.00;100970.33;3567219;81;99362;-89
2022/02/08 08:33:47;;;;;;;16.83;4.17;;;;;;;3.57;99.37;100965.52;3512015;81;99363;-86
2022/02/08 08:38:52;;;;;;;16.17;3.70;;;;;;;3.61;99.50;100964.56;3510689;82;99178;-87
2022/02/08 08:49:10;;;;;;;22.70;4.28;;;;;;;3.72;98.90;100955.55;3572140;81;98734;-86
2022/02/08 08:54:05;;;;;;;14.53;4.10;;;;;;;3.76;98.58;100942.33;3567791;81;98752;-86
2022/02/08 08:59:09;;;;;;;13.98;4.15;;;;;;;3.83;98.52;100929.03;3567556;81;98833;-86
2022/02/08 09:04:10;;;;;;;17.93;4.67;;;;;;;3.94;98.73;100927.59;3544928;81;99061;-88
2022/02/08 09:09:14;;;;;;;14.57;4.23;;;;;;;4.06;98.67;100915.52;3509709;82;99089;-87
2022/02/08 09:14:14;;;;;;;13.15;4.97;;;;;;;4.16;98.48;100932.08;3570986;81;99029;-89
2022/02/08 09:29:55;;;;;;;19.17;5.05;;;;;;;4.34;98.01;100905.86;3564647;81;98767;-87
2022/02/08 09:34:52;;;;;;;16.93;5.20;;;;;;;4.35;97.73;100893.02;3574024;81;99279;-86
2022/02/08 09:39:53;;;;;;;20.57;5.47;;;;;;;4.36;97.64;100889.97;3569730;81;99036;-85
2022/02/08 09:44:55;;;;;;;13.17;4.87;;;;;;;4.36;97.75;100874.20;3569230;81;99052;-84
2022/02/08 09:50:04;;;;;;;16.67;5.58;;;;;;;4.37;97.84;100883.39;3570714;81;99174;-88
2022/02/08 09:54:59;;;;;;;17.35;6.33;;;;;;;4.38;98.03;100896.47;3573035;81;33520;-88
2022/02/08 10:00:01;;;;;;;24.20;6.03;;;;;;;4.34;98.30;100896.32;3566501;81;99050;-88
2022/02/08 10:05:04;;;;;;;13.23;5.60;;;;;;;4.30;98.82;100903.53;3551232;81;98920;-87
2022/02/08 10:10:09;;;;;;;19.33;7.10;;;;;;;4.28;99.49;100883.18;3503162;82;99104;-86
2022/02/08 10:25:59;;;;;;;19.15;7.17;;;;;;;4.26;100.00;100846.72;3562138;80;99077;-88
2022/02/08 10:31:21;;;;;;;20.67;7.47;;;;;;;4.26;100.00;100854.89;3503355;82;98738;-88
2022/02/08 10:41:21;;;;;;;18.80;7.53;;;;;;;4.30;100.00;100861.85;3463119;82;98949;-86
2022/02/08 10:46:23;;;;;;;21.90;7.03;;;;;;;4.35;100.00;100855.68;3537778;82;98847;-83
2022/02/08 10:51:24;;;;;;;21.30;8.23;;;;;;;4.38;100.00;100837.33;3526702;82;99365;-84
2022/02/08 10:56:29;;;;;;;17.53;8.20;;;;;;;4.42;100.00;100819.77;3548442;82;99124;-89
2022/02/08 11:01:31;;;;;;;19.55;8.65;;;;;;;4.43;100.00;100788.08;3540059;82;98596;-87
2022/02/08 11:06:40;;;;;;;19.37;7.90;;;;;;;4.44;100.00;100778.80;3548090;81;98722;-85
2022/02/08 11:12:07;;;;;;;15.45;6.97;;;;;;;4.46;100.00;100786.63;3538301;82;98853;-85
2022/02/08 11:22:42;;;;;;;15.53;6.60;;;;;;;4.45;100.00;100751.78;3549292;82;99323;-90
2022/02/08 11:27:42;;;;;;;14.45;6.78;;;;;;;4.53;100.00;100779.53;3531169;82;99263;-89
2022/02/08 11:33:32;;;;;;;14.43;6.45;;;;;;;4.56;100.00;100769.35;3538806;82;99423;-87
2022/02/08 11:53:58;;;;;;;11.90;5.90;;;;;;;4.76;100.00;100724.17;3550970;82;98699;-86
2022/02/08 12:04:30;;;;;;;12.20;5.80;;;;;;;4.87;100.00;100726.75;3516957;81;99256;-88
2022/02/08 12:31:29;;;;;;;11.85;5.87;;;;;;;5.03;100.00;100725.80;3567552;81;98848;-91
2022/02/08 12:36:30;;;;;;;17.30;8.48;;;;;;;5.07;100.00;100719.92;3581130;81;99137;-87
2022/02/08 12:57:40;;;;;;;9.70;4.37;;;;;;;5.10;100.00;100704.27;3568285;81;99131;-87
2022/02/08 13:02:47;;;;;;;9.40;4.77;;;;;;;5.11;100.00;100702.32;3491316;83;98985;-84
2022/02/08 14:05:57;;;;;;;18.75;8.73;;;;;;;5.35;100.00;100680.02;3518386;82;98536;-89
2022/02/08 14:32:01;;;;;;;13.50;5.70;;;;;;;5.44;100.00;100651.28;3542139;82;98351;-89
2022/02/08 14:37:19;;;;;;;12.03;5.20;;;;;;;5.46;100.00;100651.77;3545133;81;99107;-88
2022/02/08 14:59:20;;;;;;;14.47;7.97;;;;;;;5.59;100.00;100638.36;3523163;82;98882;-87
2022/02/08 15:08:38;;;;;;;16.15;7.28;;;;;;;5.66;100.00;100648.14;3533142;82;98764;-88
2022/02/08 15:13:43;;;;;;;12.70;6.35;;;;;;;5.71;100.00;100652.83;3535376;82;33023;-87
2022/02/08 15:18:40;;;;;;;14.15;7.30;;;;;;;5.74;100.00;100646.67;3529109;82;99071;-88
2022/02/08 15:23:41;;;;;;;12.83;6.80;;;;;;;5.79;100.00;100641.59;3544421;80;98663;-86
2022/02/08 15:28:42;;;;;;;14.73;7.20;;;;;;;5.85;100.00;100637.52;3526572;82;98930;-85
2022/02/08 15:33:43;;;;;;;14.90;7.40;;;;;;;5.91;100.00;100641.63;3532448;82;98811;-87
2022/02/08 15:38:53;;;;;;;15.70;7.13;;;;;;;5.95;100.00;100635.71;3529473;82;99440;-88
2022/02/08 15:43:51;;;;;;;17.97;8.63;;;;;;;6.00;100.00;100628.07;3534055;82;31135;-86
2022/02/08 15:48:55;;;;;;;19.57;10.33;;;;;;;6.06;100.00;100628.06;3543176;82;98661;-86
2022/02/08 15:54:13;;;;;;;14.83;8.33;;;;;;;6.14;100.00;100631.27;3540208;82;99220;-86
2022/02/08 16:09:54;;;;;;;19.55;10.13;;;;;;;6.34;100.00;100643.21;3507991;82;99369;-90
2022/02/08 16:15:16;;;;;;;21.90;11.25;;;;;;;6.42;100.00;100642.27;3525795;82;99064;-88
2022/02/08 16:25:29;;;;;;;22.20;10.97;;;;;;;6.50;100.00;100640.00;3542186;82;98970;-84
2022/02/08 16:57:17;;;;;;;20.07;10.30;;;;;;;6.97;100.00;100656.05;3526022;82;99357;-85
2022/02/08 17:02:17;;;;;;;21.23;11.20;;;;;;;7.02;100.00;100670.85;3529328;82;30136;-86
2022/02/08 17:07:17;;;;;;;17.95;8.95;;;;;;;7.07;100.00;100678.82;3524038;81;98970;-87
2022/02/08 17:12:44;;;;;;;21.03;10.03;;;;;;;7.13;100.00;100678.23;3502728;83;98929;-86
2022/02/08 17:18:01;;;;;;;18.95;9.25;;;;;;;7.13;100.00;100670.58;3524850;82;98863;-87
2022/02/08 17:49:31;;;;;;;19.30;9.15;;;;;;;7.44;100.00;100711.77;3532359;82;98975;-87
2022/02/08 17:54:32;;;;;;;17.60;9.07;;;;;;;7.48;100.00;100712.66;3525227;82;98942;-88
2022/02/08 17:59:36;;;;;;;18.13;9.50;;;;;;;7.49;100.00;100715.06;3523393;82;99383;-85
2022/02/08 18:04:37;;;;;;;20.97;10.35;;;;;;;7.55;100.00;100727.91;3535773;82;99184;-86
2022/02/08 18:09:39;;;;;;;19.20;10.13;;;;;;;7.56;100.00;100734.42;3501164;82;99287;-86
2022/02/08 18:14:44;;;;;;;18.30;9.83;;;;;;;7.55;100.00;100743.78;3530744;82;99328;-85
2022/02/08 18:19:50;;;;;;;18.00;8.38;;;;;;;7.58;100.00;100740.92;3533734;82;98907;-87
2022/02/08 18:25:15;;;;;;;16.20;8.28;;;;;;;7.59;100.00;100741.14;3533499;82;98744;-86
2022/02/08 18:57:05;;;;;;;10.88;5.33;;;;;;;7.67;100.00;100796.33;3538447;82;99303;-85
2022/02/08 19:07:18;;;;;;;12.60;7.35;;;;;;;7.67;100.00;100813.58;3543041;81;99080;-84
2022/02/08 19:12:20;;;;;;;15.80;6.95;;;;;;;7.67;100.00;100816.87;3545747;82;99027;-85
2022/02/08 19:22:35;;;;;;;13.03;5.23;;;;;;;7.65;100.00;100830.95;3407412;81;99500;-86
2022/02/08 19:27:50;;;;;;;14.15;5.53;;;;;;;7.67;100.00;100846.45;3533330;82;98990;-85
2022/02/08 19:32:55;;;;;;;9.53;4.05;;;;;;;7.67;100.00;100853.30;3533802;80;98933;-86
2022/02/08 19:37:56;;;;;;;7.95;3.67;;;;;;;7.67;100.00;100861.52;3503144;82;98446;-85
2022/02/08 19:42:59;;;;;;;9.20;3.70;;;;;;;7.65;100.00;100861.08;3530123;82;98868;-86
2022/02/08 19:48:00;;;;;;;9.08;3.67;;;;;;;7.61;100.00;100871.13;3531368;82;99048;-87
2022/02/08 19:53:00;;;;;;;6.37;3.03;;;;;;;7.59;100.00;100883.57;3543119;82;100248;-86
2022/02/08 19:58:09;;;;;;;6.70;2.57;;;;;;;7.55;100.00;100890.87;3532978;81;98910;-85
2022/02/08 20:03:08;;;;;;;7.97;3.00;;;;;;;7.51;100.00;100905.02;3547850;82;98963;-86
2022/02/08 20:08:08;;;;;;;13.08;6.25;;;;;;;7.45;100.00;100906.41;3533184;82;98611;-86
2022/02/08 20:13:10;;;;;;;10.87;4.50;;;;;;;7.41;100.00;100913.73;3531958;82;98882;-86
2022/02/08 20:18:12;;;;;;;8.05;3.33;;;;;;;7.24;100.00;100894.78;3528790;82;99202;-86
2022/02/08 20:23:15;;;;;;;8.65;2.60;;;;;;;7.31;100.00;100917.71;3541432;80;98986;-85
2022/02/08 20:28:26;;;;;;;6.80;3.00;;;;;;;7.26;100.00;100925.37;3539474;82;98850;-84
2022/02/08 20:33:26;;;;;;;8.90;3.47;;;;;;;7.18;100.00;100935.29;3531731;82;98939;-85
2022/02/08 20:38:27;;;;;;;13.30;6.22;;;;;;;7.09;100.00;100940.06;3516889;82;98838;-85
2022/02/08 20:43:32;;;;;;;6.40;2.70;;;;;;;7.03;100.00;100950.23;3542477;82;98684;-86
2022/02/08 20:48:31;;;;;;;7.45;2.90;;;;;;;6.97;100.00;100957.03;3540003;82;98822;-85
2022/02/08 20:53:41;;;;;;;7.92;2.60;;;;;;;6.86;100.00;100964.08;3525188;82;98770;-86
2022/02/08 20:59:26;;;;;;;8.78;2.17;;;;;;;6.79;100.00;100966.59;3542904;81;98918;-85
2022/02/08 21:03:53;;;;;;;7.17;2.52;;;;;;;6.70;100.00;100975.47;3527204;82;98651;-86
2022/02/08 21:08:49;;;;;;;11.75;2.87;;;;;;;6.57;100.00;100969.72;3539792;82;98755;-85
2022/02/08 21:14:02;;;;;;;7.40;2.62;;;;;;;6.56;100.00;100985.90;3541904;82;98581;-86
2022/02/08 21:18:56;;;;;;;8.58;3.30;;;;;;;6.46;100.00;100995.32;3525424;82;98574;-87
2022/02/08 21:23:57;;;;;;;7.90;2.83;;;;;;;6.39;100.00;100995.63;3541494;82;99194;-87
2022/02/08 21:49:46;;;;;;;13.18;5.10;;;;;;;6.16;100.00;101017.61;3536002;82;98904;-87
2022/02/08 21:54:46;;;;;;;16.75;5.70;;;;;;;6.14;100.00;101027.50;3542196;82;99099;-87
2022/02/08 21:59:48;;;;;;;15.18;5.20;;;;;;;6.13;100.00;101030.56;3506432;82;99217;-87
2022/02/08 22:04:49;;;;;;;14.07;5.70;;;;;;;6.13;100.00;101045.59;3524626;82;99211;-87
2022/02/08 22:09:56;;;;;;;10.80;4.63;;;;;;;6.09;100.00;101046.83;3526967;82;99259;-86
2022/02/08 22:25:42;;;;;;;8.73;2.57;;;;;;;6.02;100.00;101049.84;3538941;82;98741;-85
2022/02/08 22:30:48;;;;;;;9.23;3.27;;;;;;;5.99;100.00;101044.48;3526432;82;98896;-85
2022/02/08 22:35:43;;;;;;;7.47;2.50;;;;;;;5.96;100.00;101045.16;3536770;82;99159;-84
2022/02/08 22:40:50;;;;;;;7.97;2.73;;;;;;;5.93;100.00;101050.45;3504395;82;98723;-83
2022/02/08 22:45:47;;;;;;;10.68;3.58;;;;;;;5.92;100.00;101062.52;3508184;82;98658;-88
2022/02/08 22:50:48;;;;;;;7.83;2.80;;;;;;;5.86;100.00;101068.75;3548447;82;98327;-88
2022/02/08 22:55:49;;;;;;;12.00;3.93;;;;;;;5.83;100.00;101076.81;3529694;82;98862;-88
2022/02/08 23:00:50;;;;;;;9.50;3.57;;;;;;;5.78;100.00;101076.38;3536232;81;98688;-88
2022/02/08 23:05:51;;;;;;;13.90;5.20;;;;;;;5.75;100.00;101073.52;3541792;82;99080;-88
2022/02/08 23:38:09;;;;;;;52.25;15.35;;;;;;;5.51;100.00;101084.23;3529779;82;99015;-88
2022/02/08 23:43:10;;;;;;;17.97;5.77;;;;;;;5.45;100.00;101088.27;3537233;81;98810;-88
2022/02/08 23:48:15;;;;;;;11.27;3.93;;;;;;;5.39;100.00;101105.38;3532521;82;98799;-87
2022/02/08 23:53:26;;;;;;;18.20;6.50;;;;;;;5.41;100.00;101094.92;3528177;82;99292;-88
2022/02/08 23:58:19;;;;;;;18.85;6.28;;;;;;;5.47;100.00;101101.02;3527968;82;98918;-87
